createdAt,value
2022-10-05T00:00:55.942Z,72.43
2022-10-05T00:03:26.808Z,72.48
2022-10-05T00:05:53.687Z,72.46
2022-10-05T00:08:23.685Z,72.51
2022-10-05T00:10:51.248Z,72.57
2022-10-05T00:13:25.540Z,73.07
2022-10-05T00:16:07.848Z,72.80
2022-10-05T00:18:37.377Z,72.75
2022-10-05T00:21:34.127Z,72.85
2022-10-05T00:24:01.491Z,73.12
2022-10-05T00:26:32.983Z,73.39
2022-10-05T00:29:02.611Z,73.39
2022-10-05T00:31:35.011Z,73.40
2022-10-05T00:34:02.203Z,73.48
2022-10-05T00:36:28.766Z,73.44
2022-10-05T00:38:55.538Z,73.52
2022-10-05T00:41:40.865Z,73.63
2022-10-05T00:44:28.563Z,73.87
2022-10-05T00:47:13.903Z,73.64
2022-10-05T00:49:40.425Z,73.78
2022-10-05T00:52:36.023Z,73.96
2022-10-05T00:55:37.584Z,73.83
2022-10-05T00:58:48.039Z,73.76
2022-10-05T01:01:14.570Z,74.14
2022-10-05T01:04:20.632Z,74.19
2022-10-05T01:07:23.498Z,74.18
2022-10-05T01:10:11.679Z,74.51
2022-10-05T01:12:38.147Z,74.36
2022-10-05T01:15:33.814Z,74.68
2022-10-05T01:18:25.318Z,74.68
2022-10-05T01:21:04.262Z,74.67
2022-10-05T01:23:52.166Z,74.78
2022-10-05T01:26:46.518Z,74.73
2022-10-05T01:29:25.378Z,75.04
2022-10-05T01:32:14.316Z,75.24
2022-10-05T01:34:53.507Z,75.45
2022-10-05T01:37:29.289Z,75.59
2022-10-05T01:40:19.792Z,75.53
2022-10-05T01:43:01.232Z,75.47
2022-10-05T01:46:22.326Z,75.34
2022-10-05T01:48:54.711Z,75.48
2022-10-05T01:51:33.394Z,75.73
2022-10-05T01:54:11.301Z,75.71
2022-10-05T01:56:59.216Z,75.69
2022-10-05T01:59:34.487Z,75.71
2022-10-05T02:02:07.694Z,76.08
2022-10-05T02:05:01.625Z,76.06
2022-10-05T02:07:50.631Z,76.11
2022-10-05T02:10:31.007Z,76.00
2022-10-05T02:13:14.536Z,76.39
2022-10-05T02:15:49.883Z,76.34
2022-10-05T02:18:21.343Z,76.41
2022-10-05T02:20:51.269Z,76.68
2022-10-05T02:23:25.859Z,76.72
2022-10-05T02:25:55.232Z,76.78
2022-10-05T02:28:32.232Z,76.75
2022-10-05T02:31:15.136Z,76.96
2022-10-05T02:33:41.971Z,76.93
2022-10-05T02:36:16.005Z,77.10
2022-10-05T02:39:06.864Z,77.03
2022-10-05T02:42:07.456Z,76.75
2022-10-05T02:44:54.476Z,76.97
2022-10-05T02:47:59.755Z,77.22
2022-10-05T02:50:50.036Z,77.02
2022-10-05T02:53:28.548Z,77.30
2022-10-05T02:56:14.003Z,77.17
2022-10-05T02:59:11.072Z,77.17
2022-10-05T03:01:48.441Z,77.45
2022-10-05T03:04:46.831Z,77.49
2022-10-05T03:07:25.001Z,77.58
2022-10-05T03:09:51.462Z,77.61
2022-10-05T03:12:45.984Z,77.65
2022-10-05T03:15:42.584Z,77.65
2022-10-05T03:18:57.196Z,77.32
2022-10-05T03:22:01.832Z,77.06
2022-10-05T03:24:46.907Z,77.13
2022-10-05T03:27:49.029Z,77.34
2022-10-05T03:30:21.855Z,77.48
2022-10-05T03:33:11.022Z,77.64
2022-10-05T03:35:43.623Z,77.64
2022-10-05T03:38:28.770Z,77.64
2022-10-05T03:41:13.303Z,77.59
2022-10-05T03:43:42.493Z,77.97
2022-10-05T03:46:18.818Z,78.26
2022-10-05T03:49:22.527Z,77.93
2022-10-05T03:51:55.795Z,77.80
2022-10-05T03:54:32.851Z,77.89
2022-10-05T03:57:12.057Z,77.95
2022-10-05T03:59:57.048Z,77.87
2022-10-05T04:02:33.224Z,77.81
2022-10-05T04:05:17.343Z,78.06
2022-10-05T04:08:15.694Z,77.82
2022-10-05T04:10:48.376Z,78.05
2022-10-05T04:13:27.286Z,78.09
2022-10-05T04:16:06.133Z,78.12
2022-10-05T04:18:38.434Z,78.05
2022-10-05T04:21:23.706Z,77.94
2022-10-05T04:24:00.070Z,77.80
2022-10-05T04:26:43.767Z,77.92
2022-10-05T04:29:25.090Z,77.93
2022-10-05T04:32:16.105Z,77.94
2022-10-05T04:35:10.007Z,78.07
2022-10-05T04:37:50.265Z,78.03
2022-10-05T04:40:25.810Z,77.97
2022-10-05T04:43:13.455Z,77.77
2022-10-05T04:46:15.895Z,77.71
2022-10-05T04:49:12.726Z,77.80
2022-10-05T04:51:51.440Z,78.01
2022-10-05T04:54:55.481Z,77.75
2022-10-05T04:57:34.495Z,78.14
2022-10-05T05:00:19.396Z,77.97
2022-10-05T05:03:18.694Z,78.03
2022-10-05T05:06:22.871Z,77.79
2022-10-05T05:08:58.516Z,78.08
2022-10-05T05:11:28.918Z,77.93
2022-10-05T05:14:22.903Z,77.82
2022-10-05T05:17:09.650Z,77.87
2022-10-05T05:19:51.438Z,77.76
2022-10-05T05:22:24.714Z,77.92
2022-10-05T05:25:02.358Z,77.76
2022-10-05T05:27:47.036Z,77.94
2022-10-05T05:30:51.533Z,77.89
2022-10-05T05:33:46.646Z,78.08
2022-10-05T05:36:22.195Z,77.76
2022-10-05T05:39:07.654Z,77.77
2022-10-05T05:41:39.617Z,77.86
2022-10-05T05:44:26.093Z,77.64
2022-10-05T05:47:05.036Z,77.75
2022-10-05T05:49:48.821Z,77.61
2022-10-05T05:52:32.172Z,77.60
2022-10-05T05:55:04.714Z,77.76
2022-10-05T05:57:38.645Z,77.78
2022-10-05T06:00:26.409Z,77.74
2022-10-05T06:03:14.853Z,77.83
2022-10-05T06:05:52.631Z,77.49
2022-10-05T06:08:35.937Z,77.64
2022-10-05T06:11:09.848Z,77.48
2022-10-05T06:13:42.322Z,77.52
2022-10-05T06:16:19.301Z,77.60
2022-10-05T06:18:54.759Z,77.71
2022-10-05T06:21:50.601Z,77.51
2022-10-05T06:25:02.483Z,77.39
2022-10-05T06:27:39.228Z,77.58
2022-10-05T06:30:07.919Z,77.63
2022-10-05T06:32:46.632Z,77.50
2022-10-05T06:35:29.396Z,77.37
2022-10-05T06:38:23.447Z,77.43
2022-10-05T06:41:31.890Z,77.35
2022-10-05T06:44:08.482Z,77.12
2022-10-05T06:46:43.861Z,77.35
2022-10-05T06:49:18.040Z,76.98
2022-10-05T06:52:02.586Z,77.24
2022-10-05T06:54:39.806Z,77.15
2022-10-05T06:57:41.874Z,77.00
2022-10-05T07:00:20.979Z,76.94
2022-10-05T07:02:56.408Z,76.95
2022-10-05T07:05:42.725Z,76.70
2022-10-05T07:08:30.596Z,76.55
2022-10-05T07:11:13.830Z,76.56
2022-10-05T07:14:03.377Z,76.51
2022-10-05T07:16:42.010Z,76.55
2022-10-05T07:19:30.484Z,76.49
2022-10-05T07:22:15.853Z,76.17
2022-10-05T07:24:58.228Z,76.21
2022-10-05T07:27:29.226Z,76.28
2022-10-05T07:30:04.712Z,75.98
2022-10-05T07:33:02.848Z,75.77
2022-10-05T07:36:09.844Z,75.66
2022-10-05T07:38:44.989Z,75.42
2022-10-05T07:41:29.693Z,75.19
2022-10-05T07:44:08.872Z,74.99
2022-10-05T07:46:50.428Z,74.72
2022-10-05T07:49:54.585Z,74.82
2022-10-05T07:52:38.854Z,74.57
2022-10-05T07:55:18.049Z,74.56
2022-10-05T07:58:04.809Z,74.40
2022-10-05T08:00:48.936Z,74.36
2022-10-05T08:03:38.343Z,74.21
2022-10-05T08:06:09.316Z,74.04
2022-10-05T08:08:35.885Z,73.96
2022-10-05T08:11:13.589Z,73.61
2022-10-05T08:13:53.386Z,73.44
2022-10-05T08:16:26.586Z,72.89
2022-10-05T08:19:00.183Z,72.69
2022-10-05T08:21:36.361Z,72.41
2022-10-05T08:24:11.134Z,72.11
2022-10-05T08:27:02.557Z,71.85
2022-10-05T08:29:40.035Z,71.59
2022-10-05T08:32:17.075Z,71.55
2022-10-05T08:35:12.932Z,71.44
2022-10-05T08:37:44.219Z,71.13
2022-10-05T08:40:52.903Z,70.73
2022-10-05T08:43:50.440Z,70.41
2022-10-05T08:46:42.618Z,70.05
2022-10-05T08:49:32.836Z,69.95
2022-10-05T08:52:10.565Z,69.34
2022-10-05T08:55:11.320Z,69.25
2022-10-05T08:58:03.936Z,68.92
2022-10-05T09:00:37.389Z,68.28
2022-10-05T09:03:32.150Z,68.17
2022-10-05T09:06:22.258Z,67.16
2022-10-05T09:09:26.600Z,66.68
2022-10-05T09:12:23.473Z,66.16
2022-10-05T09:15:35.267Z,66.59
2022-10-05T09:18:16.279Z,66.67
2022-10-05T09:20:53.153Z,66.44
2022-10-05T09:23:37.084Z,66.74
2022-10-05T09:26:12.527Z,66.72
2022-10-05T09:29:07.140Z,66.76
2022-10-05T09:31:55.291Z,66.22
2022-10-05T09:34:39.683Z,66.33
2022-10-05T09:37:26.138Z,66.36
2022-10-05T09:40:11.046Z,66.34
2022-10-05T09:42:54.299Z,66.00
2022-10-05T09:45:58.253Z,65.77
2022-10-05T09:48:46.143Z,65.68
2022-10-05T09:51:31.336Z,65.41
2022-10-05T09:54:23.026Z,65.09
2022-10-05T09:57:14.440Z,64.59
2022-10-05T09:59:56.214Z,64.03
2022-10-05T10:02:56.468Z,63.81
2022-10-05T10:05:47.155Z,64.09
2022-10-05T10:08:29.814Z,64.08
2022-10-05T10:11:18.322Z,63.80
2022-10-05T10:14:09.383Z,63.54
2022-10-05T10:16:57.883Z,63.57
2022-10-05T10:19:48.679Z,63.46
2022-10-05T10:22:24.281Z,63.24
2022-10-05T10:25:18.982Z,63.16
2022-10-05T10:27:52.354Z,63.30
2022-10-05T10:30:45.180Z,62.69
2022-10-05T10:33:44.017Z,62.67
2022-10-05T10:36:19.789Z,62.73
2022-10-05T10:39:08.936Z,62.61
2022-10-05T10:41:41.721Z,62.31
2022-10-05T10:44:32.979Z,61.72
2022-10-05T10:47:27.893Z,61.62
2022-10-05T10:50:14.047Z,61.33
2022-10-05T10:53:09.937Z,62.04
2022-10-05T10:55:52.029Z,62.33
2022-10-05T10:58:56.307Z,62.59
2022-10-05T11:01:38.684Z,62.53
2022-10-05T11:04:17.370Z,62.31
2022-10-05T11:06:52.904Z,62.34
2022-10-05T11:09:40.882Z,62.45
2022-10-05T11:12:35.207Z,62.56
2022-10-05T11:15:29.461Z,62.59
2022-10-05T11:17:58.846Z,62.47
2022-10-05T11:20:39.945Z,62.73
2022-10-05T11:23:24.909Z,62.66
2022-10-05T11:26:26.431Z,62.63
2022-10-05T11:29:17.283Z,62.41
2022-10-05T11:32:15.910Z,61.92
2022-10-05T11:35:27.444Z,61.75
2022-10-05T11:38:15.815Z,61.25
2022-10-05T11:41:33.985Z,61.13
2022-10-05T11:44:25.628Z,60.93
2022-10-05T11:47:13.092Z,61.10
2022-10-05T11:50:16.353Z,60.34
2022-10-05T11:52:52.299Z,60.50
2022-10-05T11:55:32.153Z,60.16
2022-10-05T11:58:07.487Z,60.43
2022-10-05T12:00:44.982Z,60.22
2022-10-05T12:03:11.664Z,59.91
2022-10-05T12:05:52.793Z,60.13
2022-10-05T12:09:07.520Z,59.63
2022-10-05T12:11:58.099Z,59.06
2022-10-05T12:14:33.739Z,59.02
2022-10-05T12:17:10.410Z,58.44
2022-10-05T12:19:45.773Z,58.50
2022-10-05T12:22:21.709Z,58.40
2022-10-05T12:25:03.148Z,58.65
2022-10-05T12:27:39.276Z,58.51
2022-10-05T12:30:18.525Z,57.99
2022-10-05T12:33:02.223Z,58.09
2022-10-05T12:35:48.163Z,58.12
2022-10-05T12:38:28.695Z,58.10
2022-10-05T12:41:17.160Z,58.00
2022-10-05T12:43:53.865Z,58.30
2022-10-05T12:46:46.746Z,58.07
2022-10-05T12:49:22.175Z,57.78
2022-10-05T12:52:01.753Z,57.44
2022-10-05T12:54:46.610Z,57.23
2022-10-05T12:57:40.970Z,57.36
2022-10-05T13:00:20.415Z,57.73
2022-10-05T13:02:52.951Z,57.68
2022-10-05T13:05:24.884Z,57.74
2022-10-05T13:08:06.286Z,57.89
2022-10-05T13:10:51.264Z,57.54
2022-10-05T13:13:41.639Z,57.86
2022-10-05T13:16:36.392Z,57.91
2022-10-05T13:19:39.309Z,58.04
2022-10-05T13:22:51.298Z,58.17
2022-10-05T13:25:17.975Z,58.13
2022-10-05T13:28:07.395Z,57.95
2022-10-05T13:30:37.427Z,57.92
2022-10-05T13:33:20.810Z,57.91
2022-10-05T13:35:59.136Z,57.78
2022-10-05T13:38:51.704Z,58.08
2022-10-05T13:41:30.348Z,58.22
2022-10-05T13:44:16.665Z,57.98
2022-10-05T13:46:53.685Z,57.92
2022-10-05T13:49:37.047Z,57.56
2022-10-05T13:52:46.031Z,57.72
2022-10-05T13:55:21.924Z,57.86
2022-10-05T13:58:06.039Z,57.87
2022-10-05T14:00:41.613Z,57.58
2022-10-05T14:03:32.485Z,57.91
2022-10-05T14:06:01.511Z,57.86
2022-10-05T14:08:32.309Z,57.73
2022-10-05T14:11:03.040Z,57.74
2022-10-05T14:13:44.273Z,57.72
2022-10-05T14:16:13.877Z,57.95
2022-10-05T14:19:04.272Z,58.17
2022-10-05T14:21:32.764Z,58.53
2022-10-05T14:24:32.068Z,58.34
2022-10-05T14:27:52.230Z,58.44
2022-10-05T14:30:25.784Z,58.41
2022-10-05T14:33:00.604Z,58.84
2022-10-05T14:35:54.744Z,58.55
2022-10-05T14:38:31.370Z,58.40
2022-10-05T14:41:19.461Z,58.69
2022-10-05T14:43:58.267Z,58.74
2022-10-05T14:46:29.904Z,58.36
2022-10-05T14:49:21.532Z,57.89
2022-10-05T14:51:49.845Z,57.59
2022-10-05T14:54:25.510Z,57.34
2022-10-05T14:57:04.124Z,57.33
2022-10-05T14:59:46.809Z,57.67
2022-10-05T15:02:40.166Z,57.39
2022-10-05T15:05:25.001Z,57.62
2022-10-05T15:07:57.269Z,57.35
2022-10-05T15:10:29.832Z,57.95
2022-10-05T15:13:11.640Z,58.19
2022-10-05T15:15:49.986Z,58.16
2022-10-05T15:18:43.986Z,58.46
2022-10-05T15:21:30.415Z,58.27
2022-10-05T15:24:13.307Z,58.49
2022-10-05T15:26:53.934Z,58.95
2022-10-05T15:29:38.920Z,58.94
2022-10-05T15:32:34.452Z,59.02
2022-10-05T15:35:14.107Z,58.69
2022-10-05T15:37:44.636Z,58.86
2022-10-05T15:40:45.748Z,58.48
2022-10-05T15:43:20.083Z,58.54
2022-10-05T15:46:07.601Z,58.65
2022-10-05T15:49:08.398Z,58.80
2022-10-05T15:51:50.795Z,58.74
2022-10-05T15:54:54.912Z,58.47
2022-10-05T15:57:32.924Z,58.85
2022-10-05T16:00:19.065Z,59.12
2022-10-05T16:03:08.711Z,59.08
2022-10-05T16:05:56.849Z,58.89
2022-10-05T16:08:49.213Z,59.17
2022-10-05T16:11:30.046Z,59.54
2022-10-05T16:14:22.390Z,59.62
2022-10-05T16:17:11.665Z,59.71
2022-10-05T16:20:03.291Z,59.44
2022-10-05T16:22:43.391Z,59.66
2022-10-05T16:25:31.673Z,60.13
2022-10-05T16:28:22.708Z,60.25
2022-10-05T16:30:58.888Z,60.07
2022-10-05T16:33:33.885Z,60.08
2022-10-05T16:36:16.391Z,60.33
2022-10-05T16:39:05.728Z,60.28
2022-10-05T16:42:14.118Z,60.43
2022-10-05T16:44:56.067Z,60.75
2022-10-05T16:47:27.626Z,60.84
2022-10-05T16:50:33.385Z,60.82
2022-10-05T16:53:21.354Z,60.62
2022-10-05T16:55:55.626Z,61.09
2022-10-05T16:58:28.331Z,61.01
2022-10-05T17:01:22.667Z,61.07
2022-10-05T17:03:54.071Z,61.17
2022-10-05T17:07:08.534Z,61.32
2022-10-05T17:10:15.071Z,61.45
2022-10-05T17:12:56.740Z,61.29
2022-10-05T17:15:32.623Z,61.50
2022-10-05T17:18:28.462Z,61.70
2022-10-05T17:21:03.404Z,61.80
2022-10-05T17:23:56.637Z,61.99
2022-10-05T17:26:23.097Z,61.85
2022-10-05T17:29:00.320Z,61.96
2022-10-05T17:31:31.979Z,62.15
2022-10-05T17:34:16.813Z,62.26
2022-10-05T17:36:51.314Z,62.28
2022-10-05T17:39:21.442Z,62.53
2022-10-05T17:41:48.577Z,62.47
2022-10-05T17:44:21.351Z,62.66
2022-10-05T17:46:49.093Z,62.62
2022-10-05T17:49:18.370Z,62.68
2022-10-05T17:52:03.451Z,62.83
2022-10-05T17:54:50.800Z,62.76
2022-10-05T17:57:27.912Z,62.68
2022-10-05T17:59:57.245Z,62.89
2022-10-05T18:02:38.542Z,62.96
2022-10-05T18:05:20.718Z,63.24
2022-10-05T18:08:07.996Z,63.19
2022-10-05T18:10:37.850Z,63.40
2022-10-05T18:13:43.876Z,63.24
2022-10-05T18:16:10.821Z,63.39
2022-10-05T18:18:43.679Z,63.62
2022-10-05T18:21:20.510Z,63.60
2022-10-05T18:23:52.978Z,63.73
2022-10-05T18:26:37.772Z,63.91
2022-10-05T18:29:39.141Z,63.76
2022-10-05T18:32:34.979Z,63.98
2022-10-05T18:35:14.751Z,64.10
2022-10-05T18:37:53.440Z,64.16
2022-10-05T18:40:38.406Z,64.33
2022-10-05T18:43:26.748Z,64.20
2022-10-05T18:45:56.386Z,64.51
2022-10-05T18:48:48.402Z,64.50
2022-10-05T18:51:48.370Z,64.46
2022-10-05T18:54:29.936Z,64.81
2022-10-05T18:57:00.946Z,64.85
2022-10-05T18:59:38.457Z,64.73
2022-10-05T19:02:36.479Z,65.13
2022-10-05T19:05:47.913Z,65.40
2022-10-05T19:08:21.901Z,65.76
2022-10-05T19:10:56.572Z,66.13
2022-10-05T19:14:17.606Z,65.62
2022-10-05T19:16:47.005Z,65.90
2022-10-05T19:19:39.619Z,66.03
2022-10-05T19:22:47.937Z,66.06
2022-10-05T19:25:58.796Z,66.35
2022-10-05T19:28:34.997Z,67.43
2022-10-05T19:31:18.023Z,67.96
2022-10-05T19:33:47.602Z,68.39
2022-10-05T19:36:31.967Z,68.61
2022-10-05T19:39:17.245Z,68.87
2022-10-05T19:42:16.309Z,68.58
2022-10-05T19:44:57.940Z,69.70
2022-10-05T19:48:02.189Z,69.73
2022-10-05T19:50:31.499Z,70.13
2022-10-05T19:53:17.159Z,70.35
2022-10-05T19:55:47.148Z,70.95
2022-10-05T19:58:19.484Z,71.40
2022-10-05T20:00:54.527Z,71.62
2022-10-05T20:03:32.397Z,71.77
2022-10-05T20:06:03.156Z,71.99
2022-10-05T20:08:45.120Z,72.23
2022-10-05T20:11:16.764Z,72.27
2022-10-05T20:13:49.624Z,72.79
2022-10-05T20:16:34.748Z,72.70
2022-10-05T20:19:47.462Z,72.57
2022-10-05T20:22:46.509Z,72.49
2022-10-05T20:25:18.902Z,72.87
2022-10-05T20:27:51.306Z,73.19
2022-10-05T20:30:23.216Z,73.22
2022-10-05T20:32:51.464Z,73.51
2022-10-05T20:35:21.625Z,73.51
2022-10-05T20:37:50.713Z,73.61
2022-10-05T20:40:19.221Z,73.78
2022-10-05T20:42:46.700Z,73.65
2022-10-05T20:45:14.173Z,73.88
2022-10-05T20:47:42.160Z,73.91
2022-10-05T20:50:10.528Z,74.16
2022-10-05T20:52:37.677Z,74.18
2022-10-05T20:55:09.933Z,74.44
2022-10-05T20:57:41.531Z,74.36
2022-10-05T21:00:12.789Z,74.56
2022-10-05T21:02:39.753Z,74.64
2022-10-05T21:05:07.735Z,74.67
2022-10-05T21:07:36.943Z,74.87
2022-10-05T21:10:04.880Z,74.99
2022-10-05T21:12:32.766Z,75.02
2022-10-05T21:14:59.932Z,74.96
2022-10-05T21:17:26.486Z,75.00
2022-10-05T21:19:53.020Z,75.07
2022-10-05T21:22:19.619Z,75.48
2022-10-05T21:24:46.139Z,75.25
2022-10-05T21:27:12.677Z,75.46
2022-10-05T21:29:41.283Z,75.41
2022-10-05T21:32:11.473Z,75.58
2022-10-05T21:34:39.196Z,75.88
2022-10-05T21:37:05.787Z,76.05
2022-10-05T21:39:33.628Z,76.28
2022-10-05T21:42:02.624Z,76.55
2022-10-05T21:44:31.390Z,76.53
2022-10-05T21:47:04.312Z,76.79
2022-10-05T21:49:31.218Z,76.96
2022-10-05T21:52:00.842Z,77.07
2022-10-05T21:54:28.665Z,77.14
2022-10-05T21:56:57.375Z,77.11
2022-10-05T21:59:31.284Z,77.17
2022-10-05T22:02:00.042Z,77.18
2022-10-05T22:04:26.638Z,77.51
2022-10-05T22:06:54.644Z,77.32
2022-10-05T22:09:21.233Z,77.29
2022-10-05T22:11:48.430Z,77.30
2022-10-05T22:14:17.728Z,77.05
2022-10-05T22:16:47.339Z,77.34
2022-10-05T22:19:18.088Z,77.37
2022-10-05T22:21:44.685Z,77.52
2022-10-05T22:24:14.102Z,77.46
2022-10-05T22:26:43.875Z,77.86
2022-10-05T22:29:10.519Z,77.73
2022-10-05T22:31:37.925Z,77.73
2022-10-05T22:34:04.803Z,78.03
2022-10-05T22:36:33.471Z,77.77
2022-10-05T22:39:02.456Z,77.51
2022-10-05T22:41:29.027Z,78.04
2022-10-05T22:43:57.939Z,78.25
2022-10-05T22:46:24.496Z,78.24
2022-10-05T22:48:51.343Z,78.06
2022-10-05T22:51:17.935Z,77.98
2022-10-05T22:53:46.752Z,78.26
2022-10-05T22:56:16.667Z,77.98
2022-10-05T22:58:44.536Z,78.10
2022-10-05T23:01:13.946Z,78.11
2022-10-05T23:03:40.926Z,77.83
2022-10-05T23:06:16.714Z,77.65
2022-10-05T23:08:44.428Z,77.88
2022-10-05T23:11:16.607Z,78.09
2022-10-05T23:13:45.379Z,77.76
2022-10-05T23:16:17.903Z,77.80
2022-10-05T23:18:46.912Z,77.70
2022-10-05T23:21:17.244Z,77.29
2022-10-05T23:23:48.966Z,77.43
2022-10-05T23:26:17.231Z,77.38
2022-10-05T23:28:47.488Z,77.03
2022-10-05T23:31:16.853Z,76.70
2022-10-05T23:33:43.967Z,76.54
2022-10-05T23:36:19.417Z,76.19
2022-10-05T23:38:46.467Z,76.18
2022-10-05T23:41:13.601Z,76.00
2022-10-05T23:43:43.285Z,75.75
2022-10-05T23:46:12.526Z,75.41
2022-10-05T23:48:39.543Z,75.21
2022-10-05T23:51:11.162Z,74.83
2022-10-05T23:53:40.253Z,75.08
2022-10-05T23:56:07.131Z,74.84
2022-10-05T23:58:33.717Z,74.97
